Tulsa
8-10-1
2015 13-6-1 (81) 2014 11-8-2 (90) 2013 11-6-4 (77) 2012 12-6-4 (73) 2011 10-8-3 (70) 2010 8-9-2 (155) 2009 7-10-2 (176) 2008 8-9-3 (167) 2007 3-14-2 (205) 2006 7-11-1 (170)
2016
Current201520142013
DateMatchResultRecordARPI RankRecordRPIURPIOSRecordRPIRecordRPI
8/14/2016at. TCU (EXH)W 2-112-6-2348-7-41095502638-8-3696-10-3133
8/19/2016vs. #Loyola MarymountT 1-111-5-35214-6-1326023459-8-21673-16-1244
8/21/2016vs. #South CarolinaL 1-418-1-1312-5-32967233814-6-51017-4-214
8/26/2016at. Central Ark.W 2-115-4-1957-11-22364622005-12-22819-10-2197
8/28/2016at. Texas A&ML 0-211-8-15717-7-21664934622-3-2218-5-215
9/2/2016vs. Missouri St.W 3-15-8-42339-7-12225172797-10-22195-10-4235
9/4/2016vs. Houston BaptistW 4-110-10-122010-6-116551030910-7-51245-12-2245
9/9/2016vs. OklahomaL 2-313-6-21310-7-35159928810-9-4544-13-1135
9/11/2016vs. RiceL 2-311-5-15010-7-211252628914-4-3467-8-3157
9/16/2016vs. Oral RobertsW 3-011-9-215710-8-21944972754-10-326115-4-157
9/18/2016vs. Ole MissL 1-29-11-09914-5-4246213488-6-56816-6-234
9/29/2016at. *ConnecticutL 2-418-2-1819-4-0963341314-5-51911-9-056
10/2/2016at. *TempleW 2-13-16-028812-7-16756831311-8-11216-12-1238
10/6/2016vs. *CincinnatiW 2-011-5-47013-6-53956132310-8-21328-11-1138
10/9/2016vs. *East CarolinaW 2-15-12-12158-10-29354722512-8-1919-9-3141
10/14/2016at. *MemphisL 0-414-4-1288-8-3975532509-6-46013-7-165
10/20/2016at. *HoustonW 4-16-7-31924-13-02334861181-11-52381-12-3251
10/23/2016at. *SMUL 1-413-6-2305-10-31745101817-14-02009-9-1120
10/27/2016vs. *UCFL 0-29-8-25312-6-22763832518-5-01716-3-413
10/30/2016vs. *South Fla.L 2-312-4-36415-4-31966937513-7-22210-4-653
.583569292.0.501
Non-conf566302
2015
2015201420132012
DateMatchResultRecordRPIRecordRPIOSRecordRPIRecordRPI
8/15/2015at. Texas A&M (EXH)L 1-217-7-21622-3-2218-5-21519-5-115
8/21/2015vs. MercerW 2-09-8-415214-6-210110-8-319213-5-3141
8/28/2015vs. SIU EdwardsvilleW 2-05-11-328713-6-212313-5-31767-8-4224
8/30/2015vs. McNeese St.W 3-06-11-02678-10-12576-12-22598-10-2198
9/4/2015at. Missouri St.W 3-09-7-12227-10-22195-10-42358-8-2174
9/6/2015vs. Central Ark.W 2-07-11-22365-12-22819-10-219710-7-1232
9/11/2015vs. Indiana St.W 1-06-10-12664-10-328510-9-01838-10-3218
9/12/2015vs. Incarnate WordW 4-03-14-2310 0-0-0.000
9/18/2015at. OklahomaL 1-210-7-35110-9-4544-13-11357-9-4121
9/20/2015at. Oral RobertsW 2-110-8-21944-10-326115-4-15711-7-2124
9/24/2015vs. *MemphisT 0-08-8-3979-6-46013-7-16510-8-188
10/1/2015vs. *SMUW 2-15-10-31747-14-02009-9-11209-8-463
10/4/2015vs. *HoustonW 1-04-13-02331-11-52381-12-32517-9-3126
10/8/2015at. *South Fla.L 0-115-4-31913-7-22210-4-65310-5-451
10/11/2015at. *UCFL 1-312-6-22718-5-01716-3-41317-5-220
10/15/2015vs. *TempleW 2-112-7-16711-8-11216-12-12385-12-3213
10/18/2015vs. *ConnecticutL 1-219-4-0914-5-51911-9-0569-8-260
10/23/2015at. *East CarolinaW 2-18-10-29312-8-1919-9-314110-7-397
10/25/2015at. *CincinnatiL 0-113-6-53910-8-21328-11-11384-13-1227
11/3/2015vs. #CincinnatiL 0-213-6-53910-8-21328-11-11384-13-1227
.514.00.486.491
2014
2014201320122011
DateMatchResultRecordRPIRecordRPIOSRecordRPIRecordRPI
8/22/2014vs. Abilene ChristianW 1-08-9-2209 00-0-0.0000-0-0.000
8/24/2014at. Arkansas St.W 1-04-14-030110-7-318839811-8-11697-10-3191
8/29/2014vs. Missouri St.W 3-27-10-22195-10-42353078-8-217412-5-2110
8/31/2014vs. UMKCW 2-013-5-315212-9-11714006-9-42568-8-3215
9/5/2014vs. Central Ark.W 3-15-12-22819-10-219735910-7-12325-11-2284
9/7/2014at. TennesseeL 0-110-10-2578-7-45841314-5-31815-7-033
9/12/2014vs. Tenn.-MartinW 1-012-6-213611-9-115339713-6-312914-7-2116
9/14/2014vs. OklahomaT 0-010-9-4544-13-11352827-9-41217-13-0100
9/19/2014vs. #Texas TechL 1-316-4-21418-2-32954416-6-12110-8-274
9/21/2014at. Oklahoma St.L 1-210-10-1479-7-64442511-6-37622-2-26
9/25/2014vs. *South Fla.W 3-213-7-22210-4-65346410-5-4516-8-4172
9/28/2014vs. *UCFL 1-418-5-01716-3-41353917-5-22013-5-620
10/2/2014at. *TempleL 2-311-8-11216-12-12382895-12-32135-12-1256
10/5/2014at. *ConnecticutT 2-214-5-51911-9-0564239-8-2607-8-285
10/9/2014vs. *East CarolinaL 0-112-8-1919-9-314137910-7-39711-8-179
10/12/2014vs. *CincinnatiW 2-110-8-21328-11-11383494-13-12276-9-4190
10/15/2014vs. Oral RobertsW 3-04-10-326115-4-15751511-7-21245-10-2209
10/18/2014at. *MemphisL 0-19-6-46013-7-16545610-8-18822-1-18
10/23/2014at. *SMUW 2-17-14-02009-9-11203819-8-46311-8-176
10/26/2014at. *HoustonW 2-01-11-52381-12-32512127-9-31266-11-2143
11/2/2014at. ConnecticutL 0-114-5-51911-9-0564239-8-2607-8-285
.525.504379.521.507
2013
2013201220112010
DateMatchResultRecordRPIRecordRPIOSRecordRPIRecordRPI
8/23/2013vs. Houston BaptistW 2-15-12-224510-7-320539211-9-12377-13-2292
8/25/2013at. Missouri St.W 1-05-10-42358-8-217437112-5-211010-6-3127
8/30/2013vs. GonzagaW 3-07-11-12288-11-11573427-10-21788-11-1123
9/4/2013at. ArkansasL 0-115-8-1389-10-1893804-14-01755-11-3139
9/6/2013at. Oral RobertsW 2-015-4-15711-7-21244245-10-22098-8-1215
9/13/2013vs. Arkansas St.W 4-010-7-318811-8-11694027-10-31917-11-1243
9/15/2013vs. Penn St.L 2-315-7-1921-4-2556521-5-0911-9-141
9/20/2013at. Cal St. NorthridgeL 0-16-12-120411-5-6524527-10-210112-9-079
9/22/2013at. UC RiversideW 1-08-12-22187-10-32343268-9-21421-14-3268
9/27/2013vs. Louisiana TechW 3-09-10-12039-5-41594167-8-423115-6-0126
9/29/2013vs. Fla. AtlanticT 0-05-10-42565-13-02672585-11-12276-13-0222
10/4/2013at. Southern Miss.W 1-07-9-42004-12-12362634-13-32533-14-2239
10/6/2013at. RiceW 1-07-8-315711-7-38243110-7-4658-8-470
10/12/2013at. Colorado Col.L 0-215-4-32114-4-55049110-7-3818-7-476
10/18/2013vs. North TexasL 1-414-7-17816-5-25549914-4-37712-7-2143
10/20/2013vs. UTEPL 0-112-6-39010-10-018536611-8-48011-8-091
10/25/2013at. UABT 0-011-7-21432-17-02811776-12-11538-9-2131
10/27/2013at. MarshallT 2-210-7-31187-11-11933234-12-31847-9-3153
10/31/2013vs. UTSAW 1-05-12-22083-12-22302569-9-212813-8-2119
11/4/2013vs. #UABW 1-011-7-21432-17-02811776-12-11538-9-2131
11/6/2013vs. #Colorado Col.T 2-215-4-32114-4-55049110-7-3818-7-476
.531.490372.473.471
2012
2012201120102009
DateMatchResultRecordRPIRecordRPIOSRecordRPIRecordRPI
8/11/2012at. Oklahoma (EXH)W 2-07-9-41217-13-010032712-8-3367-10-2120
8/17/2012vs. Weber St.W 3-07-10-22446-10-32423153-15-12855-12-0229
8/24/2012vs. Notre DameL 0-216-6-21410-8-34242521-2-2221-4-15
8/26/2012vs. Nicholls St.W 7-04-13-02915-12-12912586-10-22844-15-1310
8/31/2012vs. Missouri St.W 2-18-8-217412-5-211045710-6-31279-6-3182
9/2/2012vs. Northwestern St.W 5-15-11-12608-10-12503328-10-124711-9-0199
9/7/2012vs. #Fla. Gulf CoastL 0-113-4-35314-5-27147811-4-216810-5-3147
9/9/2012at. UMKCW 3-06-9-42568-8-32153631-15-23101-16-1314
9/14/2012vs. Oral RobertsT 1-111-7-21245-10-22093068-8-12158-9-0233
9/21/2012at. RiceL 0-111-7-38210-7-4654248-8-4706-10-3125
9/23/2012at. *HoustonT 0-07-9-31266-11-214332312-5-4604-12-2203
9/28/2012vs. Colorado Col.L 0-114-4-55010-7-3814198-7-47612-6-242
9/30/2012vs. UTEPW 2-110-10-018511-8-48042111-8-09113-6-171
10/5/2012at. *UCFL 0-217-5-22013-5-62048115-5-32317-5-111
10/7/2012at. Southern Miss.W 3-24-12-12364-13-32532603-14-22394-13-0245
10/12/2012at. MarshallW 2-07-11-11934-12-31842857-9-315312-7-097
10/14/2012at. *East CarolinaT 0-010-7-39711-8-1794229-9-1999-7-398
10/19/2012vs. *MemphisW 3-010-8-18822-1-1860515-4-32616-7-034
10/21/2012vs. UABW 2-02-17-02816-12-11533098-9-213111-7-358
10/26/2012vs. *SMUW 2-19-8-46311-8-17641911-7-4537-11-1129
10/31/2012vs. #East CarolinaW 1-010-7-39711-8-1794229-9-1999-7-398
11/2/2012vs. #Colorado Col.T 1-114-4-55010-7-3814198-7-47612-6-242
11/4/2012vs. #UCFL 0-217-5-22013-5-62048115-5-32317-5-111
.515.523392.527.518
2011
2011201020092008
DateMatchResultRecordRPIRecordRPIOSRecordRPIRecordRPI
8/19/2011at. Oral RobertsW 1-05-10-22098-8-12153598-9-02335-10-1251
8/26/2011vs. Stephen F. AustinW 1-015-3-14513-5-26948010-8-21579-7-2181
8/28/2011vs. Sam Houston St.W 6-09-11-21889-11-12133459-10-21788-7-0221
9/2/2011at. Notre DameL 1-710-8-34221-2-2257821-4-1526-1-02
9/4/2011vs. #Western MichiganL 1-214-8-06210-7-51324076-8-51897-11-1171
9/9/2011at. Missouri St.T 0-012-5-211010-6-31274249-6-318210-7-2153
9/11/2011at. Northwestern St.W 2-08-10-12508-10-124733311-9-01999-9-2229
9/16/2011vs. Utah St.W 1-015-5-2599-7-515439310-9-212413-8-1111
9/18/2011vs. Southern UtahW 2-04-11-33063-11-12912332-14-22936-10-0262
9/23/2011vs. Southern Miss.T 0-04-13-32533-14-22392404-13-02455-13-1254
9/25/2011vs. *UCFL 1-213-5-62015-5-32350217-5-11114-6-330
9/30/2011vs. *HoustonW 2-16-11-214312-5-4604674-12-22037-10-1186
10/2/2011vs. RiceL 0-210-7-4658-8-4703946-10-312510-9-080
10/7/2011at. UABW 3-06-12-11538-9-213136611-7-3587-11-2149
10/9/2011at. *MemphisL 0-422-1-1815-4-32651416-7-03415-5-251
10/14/2011vs. *East CarolinaW 1-011-8-1799-9-1993839-7-39814-4-440
10/16/2011vs. MarshallW 3-04-12-31847-9-315335512-7-0975-10-4191
10/21/2011at. UTEPT 1-111-8-48011-8-09141913-6-17112-7-1108
10/23/2011at. Colorado Col.L 1-410-7-3818-7-47640312-6-24213-7-264
10/28/2011vs. *SMUL 1-211-8-17611-7-4534407-11-11296-13-1159
11/2/2011at. MemphisL 1-222-1-1815-4-32651416-7-03415-5-251
.555.555407.531.538
2010
2010200920082007
DateMatchResultRecordRPIRecordRPIOSRecordRPIRecordRPI
8/20/2010vs. Northwestern St.W 4-08-10-124711-9-01993909-9-222911-7-2191
8/22/2010vs. UALRW 5-17-12-12409-12-11653568-11-221211-10-1164
8/27/2010vs. OklahomaL 0-112-8-3367-10-21203493-15-11736-10-3116
8/29/2010vs. Oral RobertsW 4-08-8-12158-9-02333425-10-12516-9-3219
9/3/2010vs. Murray St.W 2-14-12-326611-9-224036912-5-31799-8-0192
9/5/2010vs. Missouri St.W 2-110-6-31279-6-318240010-7-21536-11-2207
9/10/2010at. Arkansas St.L 0-17-11-12438-10-31943514-12-22833-13-2271
9/12/2010at. Central Ark.L 0-16-8-42717-11-12843013-12-12978-9-0257
9/24/2010at. RiceL 0-28-8-4706-10-312533810-9-08011-7-298
9/26/2010at. *HoustonL 0-112-5-4604-12-22032747-10-11863-12-2241
10/1/2010at. MarshallL 0-17-9-315312-7-0974405-10-41914-13-1253
10/3/2010at. *East CarolinaL 1-29-9-1999-7-39840814-4-4409-5-572
10/8/2010vs. Colorado Col.L 1-28-7-47612-6-24246913-7-26410-6-364
10/10/2010vs. UTEPW 1-011-8-09113-6-17146612-7-110812-7-287
10/15/2010vs. *MemphisT 1-115-4-32616-7-03448715-5-25117-4-134
10/17/2010vs. UABW 4-18-9-213111-7-3584377-11-21499-8-290
10/22/2010at. *UCFL 1-315-5-32317-5-11153314-6-33015-4-420
10/24/2010at. Southern Miss.W 4-13-14-22394-13-02452455-13-12548-11-0130
10/28/2010at. *SMUT 1-111-7-4537-11-11293406-13-11599-7-194
.506.511384.470.499
2009
2009200820072006
DateMatchResultRecordRPIRecordRPIOSRecordRPIRecordRPI
8/15/2009at. Oklahoma St. (EXH)T 0-015-7-23718-1-41356814-6-33717-3-319
8/28/2009vs. La.-LafayetteW 2-12-16-12855-12-22602759-8-41768-8-4159
8/30/2009at. OklahomaL 1-37-10-21203-15-11732436-10-31168-11-1131
9/3/2009vs. ArkansasT 0-08-7-49611-8-01364078-11-11859-7-285
9/6/2009vs. La.-MonroeW 7-02-14-22964-13-12762438-11-12225-13-2268
9/11/2009vs. #Kent St.L 1-28-9-21926-11-12223017-11-123710-10-1184
9/13/2009at. New MexicoT 0-013-5-3758-5-6704348-5-4978-7-5111
9/16/2009vs. Oral RobertsW 1-08-9-02335-10-12512886-9-32193-9-3245
9/20/2009at. Northwestern St.L 0-111-9-01999-9-222935611-7-21918-9-2246
9/25/2009at. UTEPL 1-213-6-17112-7-110843412-7-28714-6-073
9/27/2009at. Colorado Col.L 0-212-6-24213-7-26445710-6-36415-6-140
10/2/2009vs. *HoustonW 1-04-12-22037-10-11863343-12-22419-10-0141
10/4/2009vs. RiceW 1-06-10-312510-9-08040511-7-29810-6-1100
10/9/2009vs. *East CarolinaL 0-19-7-39814-4-4404989-5-57210-8-289
10/11/2009vs. MarshallW 4-112-7-0975-10-41913154-13-12535-11-1251
10/16/2009at. UABL 0-211-7-3587-11-21493329-8-2908-12-1145
10/18/2009at. *MemphisL 0-116-7-03415-5-25149217-4-13411-6-3112
10/23/2009vs. Southern Miss.W 4-04-13-02455-13-12542638-11-01304-13-1241
10/25/2009vs. *UCFL 1-217-5-11114-6-33048215-4-42011-6-270
10/29/2009at. *SMUL 1-37-11-11296-13-11593049-7-19417-5-129
.498.465361.520.521